Airfield :
LOGIN :

Register | Disclaimer

   EN    FR    IT 

 










Legend :    VFR   Marginal VFR   IFR   Intensive IFR   Very Intensive IFR
Visi :
Ceiling :
>= 8 km
>= 3000ft
5 to 8 km
1000 to 3000 ft
1500m to 5 km
500 to 1000 ft
800 to 1500m
200 to 500 ft
< 800m
< 200 ft
Symbols :   Thunderstorms  Fog  Heavy snow  Heavy precipitations  Wind > 20 kt
SIGMETs :     Misc.  Thunderstorms  Icing  Turbulence  Mountain Waves  Volcanic Ashes






- Airport Elevation : 364 ft


LFAQ - Albert Bray

CURRENT METAR :
  • 220900Z AUTO 22010KT 200V260 9999 BKN015 BKN023 BKN031 15/13 Q1014 TEMPO 4000 RADZ BKN014TCU

EXPIRED METARs :
  • 220830Z AUTO 20007KT 170V240 9999 FEW009 SCT014 BKN035 16/13 Q1014 TEMPO 4000 RADZ BKN014TCU
  • 220800Z AUTO 21006KT 9999 SCT008 BKN012 BKN066 15/14 Q1014 TEMPO 4000 RADZ
  • 220730Z AUTO 19005KT 9999 FEW044 BKN054 OVC066 13/13 Q1014 TEMPO 4000 RADZ BKN012
  • 220700Z AUTO 20006KT 9999 -RA FEW015 BKN036 OVC042 13/12 Q1014 TEMPO 4000 RADZ BKN012
  • 220630Z AUTO 20010KT 3100 -RA BR BKN003 BKN008 BKN013 13/12 Q1014 TEMPO RADZ BKN012
  • 220600Z AUTO 19007KT 2500 RA BR BKN004 BKN008 BKN026 13/13 Q1014 TEMPO 4000 RADZ
  • 220530Z AUTO 20005KT 4500 RA BR BKN004/// OVC034/// ///TCU 13/13 Q1014
  • 220500Z AUTO 19006KT 5000 -RA BR BKN003 OVC060 13/12 Q1013
  • 220430Z AUTO 17003KT 5000 -RA BR FEW001/// BKN062/// BKN078/// ///TCU 13/12 Q1013

TAF TAF LFAQ
Valid from the 22 at 09:00 until the 22 at 18:00 UTC


220800Z 2209/2218 21005KT 9999 BKN020
TEMPO 2209/2212 4000 RADZ BKN012
PROB40
TEMPO 2210/2212 SHRA BKN014TCU
BECMG 2212/2215 29010KT



MET'MAP, your aeronautical weather chart ! - Copyright ORBIFLY December 2007 - Disclaimer

ORBIFLY MET'MAP TEAM :

Programming & Development : Alexandra Zaïnal
Original concept : Baudouin d'Aumeries
Technical & hardware support : Manuel Goepfert
Assistance : Marc-Olivier Méhu




SOURCES & CREDITS :

   NOAA